CYER

Details ICAO CYER (YER)
Name Ft Severn
Region Canada
Timezone America/Toronto (UTC-5.0)
Plans Departing 7
Arriving 4
Stats Elevation 42 ft / 13 m (AMSL)
Location 56.018979° -87.676399°
Runways 1
Magnetic Variation 7.894° W
Sunrise 2017-12-15 14:17:48 UTC / 2017-12-15 09:17:48 Local
Sunset 2017-12-15 21:16:56 UTC / 2017-12-15 16:16:56 Local
Advertisement - Login to hide

Runways

ID Width Length Bearing (true) Bearing (mag) Surface Threshold Offset Overrun Length
14 98 ft / 30 m 3,878 ft / 1,182 m 142.70° 150.59° Gravel 0 ft / 0 m 0 ft / 0 m
32 98 ft / 30 m 3,878 ft / 1,182 m 322.71° 330.60° Gravel 0 ft / 0 m 0 ft / 0 m

Map

Weather


0- 5 10 15 20 25 30 35+ Temperature / ° C

Clouds and Precipitation
Forecast for 2017-12-15 18:00 UTC. Updated an hour ago

Ground ~20,000 ft ~40,000 ft Winds

METAR

CYER 151800Z AUTO 31008G16KT 9SM -SN SCT016 OVC050 M18/M20 A2985 RMK SLP112

TAF

TAF CYER 151338Z 1514/1520 30010G20KT P6SM OVC030 TEMPO 1514/1520 4SM -SN RMK FCST BASED ON AUTO OBS. NXT FCST WILL BE ISSUED AT 160945Z
Warning: Do not use this data for real-world aviation or navigation. No guarantee of current accuracy is given.